Time;durP1;ratioP1;P1;durP2;ratioP2;P2;SDS_P1;SDS_P2;PMS_P1;PMS_P2;Temp;Humidity;BMP_temperature;BMP_pressure;BME280_temperature;BME280_humidity;BME280_pressure;Samples;Min_cycle;Max_cycle;Signal;HPM_P1;HPM_P2
2024/02/21 00:01:17;;;;;;;231.57;65.28;;;;;;;;;;4994955;28;20423;-44
2024/02/21 00:03:43;;;;;;;232.10;66.00;;;;;;;;;;4996398;28;20216;-45
2024/02/21 00:06:09;;;;;;;231.95;66.43;;;;;;;;;;4993194;28;20232;-45
2024/02/21 00:08:35;;;;;;;233.73;67.37;;;;;;;;;;4996218;28;20188;-44
2024/02/21 00:11:01;;;;;;;231.17;65.47;;;;;;;;;;4995093;28;20412;-45
2024/02/21 00:13:27;;;;;;;232.17;64.07;;;;;;;;;;4991977;28;20471;-44
2024/02/21 00:15:53;;;;;;;231.60;65.83;;;;;;;;;;4995789;28;20415;-44
2024/02/21 00:18:18;;;;;;;231.47;64.87;;;;;;;;;;4994956;28;20416;-45
2024/02/21 00:20:44;;;;;;;234.00;66.70;;;;;;;;;;4994837;28;20422;-46
2024/02/21 00:23:10;;;;;;;230.27;63.07;;;;;;;;;;4994454;28;20454;-44
2024/02/21 00:25:36;;;;;;;230.47;63.97;;;;;;;;;;4998152;28;20843;-45
2024/02/21 00:28:02;;;;;;;231.53;65.40;;;;;;;;;;4999002;28;20974;-44
2024/02/21 00:30:28;;;;;;;231.00;64.25;;;;;;;;;;4999916;28;20766;-45
2024/02/21 00:32:54;;;;;;;231.07;64.37;;;;;;;;;;4999725;28;20211;-45
2024/02/21 00:35:21;;;;;;;231.73;64.85;;;;;;;;;;4996899;28;20796;-45
2024/02/21 00:37:47;;;;;;;233.60;66.32;;;;;;;;;;5000134;28;20188;-45
2024/02/21 00:40:16;;;;;;;229.83;63.13;;;;;;;;;;4998516;28;20219;-45
2024/02/21 00:42:42;;;;;;;233.48;66.78;;;;;;;;;;5000152;28;20416;-45
2024/02/21 00:45:08;;;;;;;237.37;70.20;;;;;;;;;;4998630;28;20204;-45
2024/02/21 00:47:34;;;;;;;231.43;64.05;;;;;;;;;;4999119;28;20400;-45
2024/02/21 00:50:00;;;;;;;232.73;66.07;;;;;;;;;;4998384;28;20519;-45
2024/02/21 00:52:26;;;;;;;232.70;66.27;;;;;;;;;;4998719;28;20499;-45
2024/02/21 00:54:52;;;;;;;232.18;64.80;;;;;;;;;;4999699;28;20426;-45
2024/02/21 00:57:18;;;;;;;231.85;63.42;;;;;;;;;;4998038;28;20181;-45
2024/02/21 00:59:44;;;;;;;228.83;62.80;;;;;;;;;;4999886;28;20669;-44
2024/02/21 01:02:10;;;;;;;230.23;63.43;;;;;;;;;;4997298;28;20904;-44
2024/02/21 01:04:36;;;;;;;231.73;64.40;;;;;;;;;;4999433;28;21039;-44
2024/02/21 01:07:02;;;;;;;231.85;65.32;;;;;;;;;;4997737;28;20418;-45
2024/02/21 01:09:28;;;;;;;234.13;66.57;;;;;;;;;;4995839;28;20177;-44
2024/02/21 01:11:54;;;;;;;231.47;65.00;;;;;;;;;;4998890;28;20306;-45
2024/02/21 01:14:20;;;;;;;231.07;66.00;;;;;;;;;;4997929;28;20541;-45
2024/02/21 01:16:46;;;;;;;232.77;65.88;;;;;;;;;;4998036;28;20706;-44
2024/02/21 01:19:12;;;;;;;231.93;64.90;;;;;;;;;;4997840;28;20180;-44
2024/02/21 01:21:38;;;;;;;233.27;65.50;;;;;;;;;;4999306;28;20419;-45
2024/02/21 01:24:04;;;;;;;230.30;64.40;;;;;;;;;;4997532;28;20510;-44
2024/02/21 01:26:30;;;;;;;230.85;64.35;;;;;;;;;;4998165;28;20934;-44
2024/02/21 01:28:56;;;;;;;231.43;65.40;;;;;;;;;;4998342;28;20184;-45
2024/02/21 01:31:22;;;;;;;231.17;64.53;;;;;;;;;;4996352;28;20423;-46
2024/02/21 01:33:48;;;;;;;229.67;64.57;;;;;;;;;;4998747;28;20474;-44
2024/02/21 01:36:14;;;;;;;230.83;66.00;;;;;;;;;;4997036;28;20491;-44
2024/02/21 01:38:40;;;;;;;232.23;64.47;;;;;;;;;;4998612;28;20415;-45
2024/02/21 01:41:06;;;;;;;231.90;63.95;;;;;;;;;;5004162;28;20515;-44
2024/02/21 01:43:32;;;;;;;232.70;64.60;;;;;;;;;;4997624;28;20188;-45
2024/02/21 01:45:58;;;;;;;230.47;64.13;;;;;;;;;;4997034;28;20184;-44
2024/02/21 01:48:24;;;;;;;230.90;65.38;;;;;;;;;;4996900;28;20412;-45
2024/02/21 01:50:51;;;;;;;231.18;63.85;;;;;;;;;;4995732;28;20173;-45
2024/02/21 01:53:19;;;;;;;230.68;63.28;;;;;;;;;;4996933;28;20208;-45
2024/02/21 01:55:46;;;;;;;231.63;64.95;;;;;;;;;;4998709;28;20609;-44
2024/02/21 01:58:13;;;;;;;234.00;65.55;;;;;;;;;;4995987;28;20177;-44
2024/02/21 02:00:41;;;;;;;233.40;65.25;;;;;;;;;;4998113;28;20181;-45
2024/02/21 02:03:07;;;;;;;229.82;63.97;;;;;;;;;;4996016;28;20220;-43
2024/02/21 02:05:33;;;;;;;228.82;61.15;;;;;;;;;;4998069;28;20181;-44
2024/02/21 02:07:59;;;;;;;233.53;66.80;;;;;;;;;;4996348;28;20180;-45
2024/02/21 02:10:25;;;;;;;229.87;62.47;;;;;;;;;;4996827;28;20426;-44
2024/02/21 02:12:51;;;;;;;232.27;65.28;;;;;;;;;;4996974;28;20745;-45
2024/02/21 02:15:17;;;;;;;233.03;65.33;;;;;;;;;;4996506;28;20181;-44
2024/02/21 02:17:43;;;;;;;234.87;67.27;;;;;;;;;;4998004;28;20419;-45
2024/02/21 02:20:09;;;;;;;232.27;63.60;;;;;;;;;;4996754;28;20499;-46
2024/02/21 02:22:37;;;;;;;232.57;65.20;;;;;;;;;;4997969;28;20455;-44
2024/02/21 02:25:03;;;;;;;232.60;66.03;;;;;;;;;;4995990;28;20483;-44
2024/02/21 02:27:29;;;;;;;232.20;64.38;;;;;;;;;;4996092;28;20185;-46
2024/02/21 02:29:55;;;;;;;230.97;63.70;;;;;;;;;;4997704;28;20184;-45
2024/02/21 02:32:21;;;;;;;230.27;64.07;;;;;;;;;;4996455;28;20946;-44
2024/02/21 02:34:47;;;;;;;231.07;64.07;;;;;;;;;;4997929;28;20837;-44
2024/02/21 02:37:13;;;;;;;231.90;64.47;;;;;;;;;;4996410;28;20865;-45
2024/02/21 02:39:39;;;;;;;231.40;64.60;;;;;;;;;;4996893;28;20767;-45
2024/02/21 02:42:05;;;;;;;230.53;63.10;;;;;;;;;;4996211;28;20790;-45
2024/02/21 02:44:31;;;;;;;231.27;64.80;;;;;;;;;;4996903;28;20423;-44
2024/02/21 02:46:57;;;;;;;232.03;64.33;;;;;;;;;;4996758;28;21027;-44
2024/02/21 02:49:23;;;;;;;230.67;62.47;;;;;;;;;;4995133;28;20822;-44
2024/02/21 02:51:49;;;;;;;227.60;61.87;;;;;;;;;;4997837;28;20770;-44
2024/02/21 02:54:15;;;;;;;232.27;64.60;;;;;;;;;;4995112;28;20475;-45
2024/02/21 02:56:41;;;;;;;232.13;65.07;;;;;;;;;;4997125;28;20411;-44
2024/02/21 02:59:06;;;;;;;231.77;64.47;;;;;;;;;;4996072;28;20412;-46
2024/02/21 03:01:35;;;;;;;231.97;64.37;;;;;;;;;;4996868;28;20415;-44
2024/02/21 03:04:02;;;;;;;230.35;62.90;;;;;;;;;;4993310;28;20457;-44
2024/02/21 03:06:28;;;;;;;231.98;64.40;;;;;;;;;;4995902;28;20180;-45
2024/02/21 03:08:54;;;;;;;231.87;64.23;;;;;;;;;;4988253;28;20192;-45
2024/02/21 03:11:22;;;;;;;229.07;64.17;;;;;;;;;;4995679;28;20416;-45
2024/02/21 03:13:49;;;;;;;231.77;64.15;;;;;;;;;;4996985;28;20467;-45
2024/02/21 03:16:17;;;;;;;230.60;62.95;;;;;;;;;;4995317;28;20212;-45
2024/02/21 03:18:43;;;;;;;231.60;64.75;;;;;;;;;;4996968;28;20173;-44
2024/02/21 03:21:09;;;;;;;230.00;64.27;;;;;;;;;;4995564;28;20176;-45
2024/02/21 03:23:35;;;;;;;231.23;65.53;;;;;;;;;;4995973;28;20446;-45
2024/02/21 03:26:02;;;;;;;231.50;65.88;;;;;;;;;;4989708;28;20474;-45
2024/02/21 03:28:28;;;;;;;233.30;66.93;;;;;;;;;;4995535;28;20177;-45
2024/02/21 03:30:54;;;;;;;231.73;64.87;;;;;;;;;;4996241;28;20678;-46
2024/02/21 03:33:20;;;;;;;229.77;63.20;;;;;;;;;;4995328;28;21250;-44
2024/02/21 03:35:46;;;;;;;230.63;63.03;;;;;;;;;;4995800;28;20404;-45
2024/02/21 03:38:12;;;;;;;228.83;61.97;;;;;;;;;;4996234;28;20207;-44
2024/02/21 03:40:38;;;;;;;232.50;66.03;;;;;;;;;;4996660;28;20417;-45
2024/02/21 03:43:04;;;;;;;232.93;65.40;;;;;;;;;;4994783;28;20412;-44
2024/02/21 03:45:30;;;;;;;233.03;65.47;;;;;;;;;;4995436;28;20420;-44
2024/02/21 03:47:56;;;;;;;230.13;62.67;;;;;;;;;;4995618;28;20465;-44
2024/02/21 03:50:22;;;;;;;229.27;63.47;;;;;;;;;;4994265;28;20407;-44
2024/02/21 03:52:48;;;;;;;229.40;63.33;;;;;;;;;;4996249;28;20463;-44
2024/02/21 03:55:14;;;;;;;236.47;67.77;;;;;;;;;;4994802;28;20173;-44
2024/02/21 03:57:40;;;;;;;232.40;65.57;;;;;;;;;;4996336;28;20904;-45
2024/02/21 04:00:10;;;;;;;232.70;66.50;;;;;;;;;;4994736;28;20417;-45
2024/02/21 04:02:36;;;;;;;231.30;64.72;;;;;;;;;;4996548;28;20781;-44
2024/02/21 04:05:03;;;;;;;232.52;65.82;;;;;;;;;;4993868;28;20274;-45
2024/02/21 04:07:29;;;;;;;229.88;63.85;;;;;;;;;;4995252;28;20188;-44
2024/02/21 04:09:55;;;;;;;230.03;64.17;;;;;;;;;;4995524;28;20551;-44
2024/02/21 04:12:21;;;;;;;232.67;67.67;;;;;;;;;;4994715;28;20412;-45
2024/02/21 04:14:47;;;;;;;232.37;66.63;;;;;;;;;;4991624;28;20595;-45
2024/02/21 04:17:13;;;;;;;233.07;66.27;;;;;;;;;;4999559;28;20395;-45
2024/02/21 04:19:39;;;;;;;232.07;66.53;;;;;;;;;;5009399;28;20396;-45
2024/02/21 04:22:05;;;;;;;229.07;63.70;;;;;;;;;;5011283;28;20407;-44
2024/02/21 04:24:31;;;;;;;233.17;66.30;;;;;;;;;;5011230;28;20459;-44
2024/02/21 04:26:57;;;;;;;231.83;66.27;;;;;;;;;;5010834;28;20411;-44
2024/02/21 04:29:23;;;;;;;232.97;65.67;;;;;;;;;;5011228;28;20415;-45
2024/02/21 04:31:49;;;;;;;229.68;62.35;;;;;;;;;;5010991;28;20411;-44
2024/02/21 04:34:15;;;;;;;228.90;63.87;;;;;;;;;;5011030;28;20261;-45
2024/02/21 04:36:41;;;;;;;231.47;64.87;;;;;;;;;;5011124;28;20415;-45
2024/02/21 04:39:07;;;;;;;232.27;64.63;;;;;;;;;;5011214;28;20596;-44
2024/02/21 04:41:33;;;;;;;233.53;65.50;;;;;;;;;;5011116;28;20443;-44
2024/02/21 04:43:59;;;;;;;233.82;67.65;;;;;;;;;;5010926;28;20442;-44
2024/02/21 04:46:25;;;;;;;232.90;65.40;;;;;;;;;;5010820;28;20181;-45
2024/02/21 04:48:51;;;;;;;229.63;63.78;;;;;;;;;;5010865;28;20644;-44
2024/02/21 04:51:17;;;;;;;229.53;64.50;;;;;;;;;;5010923;28;20183;-44
2024/02/21 04:53:43;;;;;;;228.95;62.13;;;;;;;;;;5010632;28;21116;-45
2024/02/21 04:56:09;;;;;;;229.38;62.70;;;;;;;;;;5010620;28;20168;-44
2024/02/21 04:58:39;;;;;;;232.73;65.35;;;;;;;;;;5010510;28;20172;-45
2024/02/21 05:01:05;;;;;;;229.85;63.20;;;;;;;;;;5011024;28;20180;-44
2024/02/21 05:03:31;;;;;;;233.47;66.87;;;;;;;;;;5008743;28;20212;-44
2024/02/21 05:05:57;;;;;;;230.57;63.20;;;;;;;;;;5010082;28;20953;-44
2024/02/21 05:08:22;;;;;;;230.13;62.93;;;;;;;;;;5006979;28;20426;-44
2024/02/21 05:10:48;;;;;;;231.07;63.00;;;;;;;;;;5009986;28;20784;-46
2024/02/21 05:13:15;;;;;;;229.97;63.80;;;;;;;;;;5011129;28;20835;-45
2024/02/21 05:15:41;;;;;;;232.60;65.45;;;;;;;;;;5013931;28;20423;-45
2024/02/21 05:18:07;;;;;;;228.47;63.23;;;;;;;;;;5013898;28;20416;-44
2024/02/21 05:20:33;;;;;;;232.57;63.92;;;;;;;;;;5014074;28;20457;-44
2024/02/21 05:22:59;;;;;;;230.17;63.27;;;;;;;;;;5014140;28;20180;-44
2024/02/21 05:25:25;;;;;;;232.23;64.47;;;;;;;;;;5014082;28;20446;-45
2024/02/21 05:27:53;;;;;;;232.38;66.97;;;;;;;;;;5014042;28;20418;-45
2024/02/21 05:30:20;;;;;;;229.63;63.28;;;;;;;;;;5014282;28;20677;-44
2024/02/21 05:32:46;;;;;;;231.30;64.05;;;;;;;;;;5013967;28;20199;-44
2024/02/21 05:35:12;;;;;;;237.30;71.90;;;;;;;;;;5013954;28;20191;-45
2024/02/21 05:37:38;;;;;;;229.87;65.20;;;;;;;;;;5013826;28;20411;-45
2024/02/21 05:40:04;;;;;;;231.80;65.75;;;;;;;;;;5013776;28;20498;-44
2024/02/21 05:42:30;;;;;;;231.13;64.63;;;;;;;;;;5013677;28;20180;-44
2024/02/21 05:44:56;;;;;;;230.60;64.93;;;;;;;;;;5013821;28;20218;-44
2024/02/21 05:47:22;;;;;;;233.97;66.37;;;;;;;;;;5013691;28;20407;-44
2024/02/21 05:49:48;;;;;;;230.57;64.27;;;;;;;;;;5014022;28;20494;-45
2024/02/21 05:52:14;;;;;;;229.68;64.07;;;;;;;;;;5013985;28;20418;-44
2024/02/21 05:54:40;;;;;;;234.55;68.57;;;;;;;;;;5013541;28;20203;-44
2024/02/21 05:57:09;;;;;;;229.80;64.23;;;;;;;;;;5013330;28;20172;-45
2024/02/21 05:59:36;;;;;;;232.70;65.50;;;;;;;;;;5013530;28;20460;-44
2024/02/21 06:02:03;;;;;;;231.00;64.90;;;;;;;;;;5013809;28;20176;-44
2024/02/21 06:04:29;;;;;;;232.30;65.70;;;;;;;;;;5013602;28;20211;-45
2024/02/21 06:06:55;;;;;;;229.60;65.00;;;;;;;;;;5013408;28;20198;-44
2024/02/21 06:09:21;;;;;;;230.87;64.93;;;;;;;;;;5009197;28;20414;-45
2024/02/21 06:11:49;;;;;;;229.27;63.53;;;;;;;;;;5013406;28;20415;-45
2024/02/21 06:14:14;;;;;;;230.25;64.43;;;;;;;;;;5013421;28;20513;-44
2024/02/21 06:16:40;;;;;;;233.37;66.53;;;;;;;;;;5013101;28;20179;-45
2024/02/21 06:19:06;;;;;;;229.20;63.45;;;;;;;;;;5013543;28;20442;-44
2024/02/21 06:21:32;;;;;;;233.40;67.70;;;;;;;;;;5013224;28;20289;-45
2024/02/21 06:23:58;;;;;;;230.50;64.43;;;;;;;;;;5013400;28;20952;-44
2024/02/21 06:26:24;;;;;;;229.93;64.17;;;;;;;;;;5012860;28;20938;-44
2024/02/21 06:28:50;;;;;;;232.03;67.23;;;;;;;;;;5013177;28;20937;-44
2024/02/21 06:31:17;;;;;;;228.43;62.53;;;;;;;;;;5013662;28;20407;-45
2024/02/21 06:33:43;;;;;;;232.32;66.50;;;;;;;;;;5013427;28;21150;-44
2024/02/21 06:36:09;;;;;;;232.18;68.47;;;;;;;;;;5013363;28;20214;-44
2024/02/21 06:38:35;;;;;;;233.03;67.33;;;;;;;;;;5013295;28;20266;-44
2024/02/21 06:41:02;;;;;;;233.50;67.47;;;;;;;;;;5013155;28;20418;-45
2024/02/21 06:43:28;;;;;;;234.30;68.60;;;;;;;;;;5012751;28;20445;-45
2024/02/21 06:45:56;;;;;;;231.60;65.30;;;;;;;;;;5012686;28;20176;-45
2024/02/21 06:48:22;;;;;;;233.13;67.82;;;;;;;;;;5012972;28;20176;-44
2024/02/21 06:50:48;;;;;;;232.97;68.00;;;;;;;;;;5012656;28;20179;-44
2024/02/21 06:53:14;;;;;;;232.30;66.65;;;;;;;;;;5012642;28;20829;-45
2024/02/21 06:55:40;;;;;;;234.97;69.70;;;;;;;;;;5012577;28;20172;-45
2024/02/21 06:58:08;;;;;;;231.47;66.77;;;;;;;;;;5012759;28;20415;-45
2024/02/21 07:00:35;;;;;;;235.02;68.43;;;;;;;;;;5012657;28;20632;-45
2024/02/21 07:03:02;;;;;;;233.85;68.45;;;;;;;;;;4993995;28;20649;-44
2024/02/21 07:05:28;;;;;;;238.45;71.70;;;;;;;;;;4996173;28;20176;-46
2024/02/21 07:07:54;;;;;;;236.20;69.93;;;;;;;;;;4996373;28;20187;-44
2024/02/21 07:10:20;;;;;;;230.50;66.07;;;;;;;;;;4995663;28;20499;-45
2024/02/21 07:12:46;;;;;;;233.10;67.47;;;;;;;;;;5000309;28;20458;-45
2024/02/21 07:15:12;;;;;;;235.17;70.20;;;;;;;;;;4995635;28;20858;-45
2024/02/21 07:17:38;;;;;;;232.87;67.30;;;;;;;;;;4997492;28;20427;-45
2024/02/21 07:20:04;;;;;;;232.13;67.70;;;;;;;;;;4995872;28;20411;-45
2024/02/21 07:22:30;;;;;;;235.13;70.00;;;;;;;;;;4996018;28;20416;-45
2024/02/21 07:24:56;;;;;;;232.37;67.13;;;;;;;;;;4996045;28;20211;-45
2024/02/21 07:27:22;;;;;;;233.53;67.37;;;;;;;;;;4995626;28;20415;-45
2024/02/21 07:29:49;;;;;;;232.33;67.97;;;;;;;;;;4996842;28;20549;-44
2024/02/21 07:32:15;;;;;;;232.55;70.25;;;;;;;;;;4995349;28;20412;-45
2024/02/21 07:34:41;;;;;;;237.20;73.87;;;;;;;;;;4995734;28;20200;-44
2024/02/21 07:37:07;;;;;;;233.00;69.33;;;;;;;;;;4995430;28;20431;-45
2024/02/21 07:39:36;;;;;;;233.70;68.10;;;;;;;;;;4996568;28;20946;-45
2024/02/21 07:42:02;;;;;;;232.90;68.75;;;;;;;;;;4995740;28;20412;-44
2024/02/21 07:44:28;;;;;;;234.13;70.07;;;;;;;;;;4995585;28;20763;-44
2024/02/21 07:46:54;;;;;;;235.97;70.30;;;;;;;;;;4995860;28;20771;-45
2024/02/21 07:49:20;;;;;;;233.30;68.07;;;;;;;;;;4994708;28;20917;-44
2024/02/21 07:51:45;;;;;;;235.63;70.27;;;;;;;;;;4996263;28;20784;-44
2024/02/21 07:54:12;;;;;;;237.37;71.60;;;;;;;;;;4994951;28;20478;-44
2024/02/21 07:56:38;;;;;;;236.98;71.10;;;;;;;;;;4996373;28;20454;-45
2024/02/21 07:59:04;;;;;;;234.87;70.87;;;;;;;;;;4995552;28;20179;-44
2024/02/21 08:01:30;;;;;;;236.83;72.17;;;;;;;;;;4996101;28;20405;-44
2024/02/21 08:03:56;;;;;;;237.30;72.37;;;;;;;;;;4995332;28;20458;-44
2024/02/21 08:06:22;;;;;;;234.67;69.53;;;;;;;;;;4994672;28;20466;-46
2024/02/21 08:08:48;;;;;;;236.20;71.78;;;;;;;;;;4996263;28;20407;-46
2024/02/21 08:11:14;;;;;;;234.67;71.50;;;;;;;;;;4995042;28;20460;-45
2024/02/21 08:13:40;;;;;;;235.23;72.33;;;;;;;;;;4996375;28;20467;-44
2024/02/21 08:16:06;;;;;;;232.67;71.53;;;;;;;;;;4994469;28;20408;-44
2024/02/21 08:18:34;;;;;;;236.93;71.80;;;;;;;;;;4995426;28;20424;-44
2024/02/21 08:20:59;;;;;;;233.63;69.45;;;;;;;;;;4995025;28;20203;-44
2024/02/21 08:23:25;;;;;;;234.07;70.97;;;;;;;;;;4995157;28;20196;-45
2024/02/21 08:25:51;;;;;;;233.07;70.60;;;;;;;;;;4995923;28;20423;-45
2024/02/21 08:28:17;;;;;;;232.43;70.10;;;;;;;;;;4994949;28;20420;-45
2024/02/21 08:30:47;;;;;;;233.37;70.27;;;;;;;;;;4996111;28;20415;-45
2024/02/21 08:33:13;;;;;;;235.30;72.10;;;;;;;;;;4994569;28;20467;-44
2024/02/21 08:35:39;;;;;;;238.50;74.30;;;;;;;;;;4995806;28;20177;-44
2024/02/21 08:38:05;;;;;;;233.63;69.17;;;;;;;;;;4994488;28;20416;-45
2024/02/21 08:40:31;;;;;;;233.77;69.13;;;;;;;;;;4995333;28;20505;-44
2024/02/21 08:42:57;;;;;;;236.43;71.13;;;;;;;;;;4995002;28;20432;-45
2024/02/21 08:45:23;;;;;;;237.25;72.30;;;;;;;;;;4994599;28;20603;-45
2024/02/21 08:47:49;;;;;;;242.87;75.17;;;;;;;;;;5013244;28;20203;-44
2024/02/21 08:50:15;;;;;;;235.40;71.97;;;;;;;;;;5014985;28;20414;-45
2024/02/21 08:52:41;;;;;;;239.17;74.07;;;;;;;;;;5014658;28;20473;-44
2024/02/21 08:55:07;;;;;;;246.00;79.47;;;;;;;;;;5014436;28;21004;-44
2024/02/21 08:57:36;;;;;;;234.45;69.90;;;;;;;;;;5014610;28;20202;-47
2024/02/21 09:00:09;;;;;;;235.65;71.30;;;;;;;;;;5014850;28;20176;-44
2024/02/21 09:02:35;;;;;;;234.70;72.15;;;;;;;;;;5014833;28;20542;-44
2024/02/21 09:05:01;;;;;;;235.27;71.22;;;;;;;;;;5014206;28;20262;-44
2024/02/21 09:07:27;;;;;;;230.30;66.07;;;;;;;;;;5014563;28;20173;-45
2024/02/21 09:09:53;;;;;;;232.57;67.77;;;;;;;;;;5010764;28;20415;-44
2024/02/21 09:12:19;;;;;;;230.83;66.60;;;;;;;;;;5014667;28;20541;-46
2024/02/21 09:14:47;;;;;;;233.37;69.00;;;;;;;;;;5014538;28;20486;-44
2024/02/21 09:17:14;;;;;;;229.20;64.53;;;;;;;;;;5014467;28;20457;-45
2024/02/21 09:19:40;;;;;;;229.32;65.32;;;;;;;;;;5003110;28;20172;-45
2024/02/21 09:22:06;;;;;;;231.77;67.40;;;;;;;;;;5011900;28;20218;-46
2024/02/21 09:24:32;;;;;;;231.57;67.10;;;;;;;;;;5012288;28;20470;-45
2024/02/21 09:26:58;;;;;;;232.77;68.50;;;;;;;;;;5014077;28;20426;-44
2024/02/21 09:29:24;;;;;;;228.85;65.90;;;;;;;;;;5014325;28;20477;-45
2024/02/21 09:31:50;;;;;;;230.17;66.70;;;;;;;;;;5014558;28;20737;-44
2024/02/21 09:34:16;;;;;;;236.17;70.17;;;;;;;;;;5013860;28;21004;-44
2024/02/21 09:36:43;;;;;;;233.27;67.83;;;;;;;;;;5004492;28;20523;-45
2024/02/21 09:39:11;;;;;;;236.93;70.10;;;;;;;;;;5062495;23;20518;-44
2024/02/21 09:41:39;;;;;;;237.75;71.18;;;;;;;;;;5051459;28;20663;-44
2024/02/21 09:44:05;;;;;;;232.75;67.60;;;;;;;;;;5053007;28;20549;-44
2024/02/21 09:46:41;;;;;;;240.38;70.75;;;;;;;;;;5052498;28;20182;-44
2024/02/21 09:49:19;;;;;;;237.13;72.03;;;;;;;;;;5037530;28;20207;-44
2024/02/21 09:51:46;;;;;;;233.05;67.75;;;;;;;;;;5033586;28;20193;-44
2024/02/21 09:54:12;;;;;;;235.68;69.05;;;;;;;;;;5032458;28;20761;-44
2024/02/21 09:56:38;;;;;;;236.80;70.70;;;;;;;;;;5031224;28;20285;-44
2024/02/21 09:59:04;;;;;;;232.10;67.40;;;;;;;;;;5024376;28;20430;-44
2024/02/21 10:01:31;;;;;;;236.35;70.65;;;;;;;;;;5032377;28;20434;-44
2024/02/21 10:03:57;;;;;;;234.38;68.25;;;;;;;;;;5031636;28;20202;-44
2024/02/21 10:06:24;;;;;;;234.15;66.78;;;;;;;;;;5033070;28;20290;-44
2024/02/21 10:08:54;;;;;;;232.68;68.15;;;;;;;;;;5032889;28;20214;-44
2024/02/21 10:11:24;;;;;;;233.75;69.70;;;;;;;;;;5033207;28;20590;-44
2024/02/21 10:13:50;;;;;;;238.77;71.30;;;;;;;;;;5029255;28;20191;-45
2024/02/21 10:16:16;;;;;;;234.10;69.55;;;;;;;;;;5031289;28;20164;-44
2024/02/21 10:18:42;;;;;;;231.93;66.10;;;;;;;;;;5032828;28;20274;-44
2024/02/21 10:21:08;;;;;;;231.47;67.83;;;;;;;;;;5032925;28;20429;-44
2024/02/21 10:23:50;;;;;;;234.93;68.90;;;;;;;;;;5032615;28;20425;-44
2024/02/21 10:26:17;;;;;;;231.63;66.88;;;;;;;;;;5032670;28;20650;-43
2024/02/21 10:28:44;;;;;;;231.60;65.90;;;;;;;;;;5032365;28;20210;-44
2024/02/21 10:31:11;;;;;;;235.07;70.13;;;;;;;;;;5032935;28;20262;-44
2024/02/21 10:33:38;;;;;;;230.52;65.95;;;;;;;;;;5032463;28;20201;-44
2024/02/21 10:36:13;;;;;;;233.40;67.35;;;;;;;;;;5032222;28;20180;-44
2024/02/21 10:38:39;;;;;;;234.40;70.45;;;;;;;;;;5032499;28;20218;-44
2024/02/21 10:41:11;;;;;;;234.25;69.53;;;;;;;;;;5032460;28;20229;-44
2024/02/21 10:43:40;;;;;;;233.55;67.80;;;;;;;;;;5032373;28;20286;-44
2024/02/21 10:46:08;;;;;;;231.40;66.07;;;;;;;;;;5032343;28;20195;-44
2024/02/21 10:48:40;;;;;;;235.43;70.93;;;;;;;;;;5032116;28;20191;-44
2024/02/21 10:51:12;;;;;;;233.32;68.18;;;;;;;;;;5032324;28;20266;-44
2024/02/21 10:53:54;;;;;;;234.48;69.35;;;;;;;;;;5032154;28;20214;-44
2024/02/21 10:56:20;;;;;;;237.23;71.10;;;;;;;;;;5032101;28;20620;-44
2024/02/21 10:58:46;;;;;;;236.57;71.60;;;;;;;;;;5031781;28;20269;-44
2024/02/21 11:01:14;;;;;;;240.85;73.85;;;;;;;;;;5032158;28;20418;-44
2024/02/21 11:03:41;;;;;;;239.13;74.43;;;;;;;;;;5031999;28;20199;-44
2024/02/21 11:06:08;;;;;;;239.68;74.78;;;;;;;;;;5031691;28;20551;-44
2024/02/21 11:08:34;;;;;;;240.63;75.55;;;;;;;;;;5031541;28;20196;-44
2024/02/21 11:11:00;;;;;;;237.43;73.03;;;;;;;;;;5031095;28;20192;-44
2024/02/21 11:13:32;;;;;;;239.20;74.90;;;;;;;;;;5028137;28;20509;-44
2024/02/21 11:16:11;;;;;;;239.57;75.57;;;;;;;;;;5027507;28;20411;-44
2024/02/21 11:18:38;;;;;;;240.30;75.85;;;;;;;;;;5031600;28;20566;-44
2024/02/21 11:21:07;;;;;;;241.73;77.78;;;;;;;;;;5031497;28;20171;-44
2024/02/21 11:23:33;;;;;;;239.65;75.82;;;;;;;;;;5031841;28;20206;-44
2024/02/21 11:26:08;;;;;;;242.25;79.00;;;;;;;;;;5031207;28;20238;-44
2024/02/21 11:28:36;;;;;;;244.30;81.35;;;;;;;;;;5031265;28;20199;-44
2024/02/21 11:31:09;;;;;;;239.80;77.18;;;;;;;;;;5030188;28;20169;-44
2024/02/21 11:33:35;;;;;;;246.05;81.00;;;;;;;;;;5029871;28;20200;-44
2024/02/21 11:36:04;;;;;;;241.57;76.10;;;;;;;;;;5030663;28;20175;-44
2024/02/21 11:38:30;;;;;;;243.00;76.88;;;;;;;;;;5030885;28;20229;-44
2024/02/21 11:40:56;;;;;;;244.93;81.72;;;;;;;;;;5022893;28;20396;-44
2024/02/21 11:43:22;;;;;;;241.57;77.97;;;;;;;;;;5024772;28;20182;-44
2024/02/21 11:45:48;;;;;;;244.43;80.03;;;;;;;;;;5029464;28;20424;-44
2024/02/21 11:48:14;;;;;;;242.53;79.37;;;;;;;;;;5026424;28;20959;-44
2024/02/21 11:50:40;;;;;;;243.52;80.00;;;;;;;;;;5024593;28;20450;-44
2024/02/21 11:53:06;;;;;;;241.88;77.28;;;;;;;;;;5029533;28;20202;-44
2024/02/21 11:55:34;;;;;;;241.15;78.78;;;;;;;;;;5019974;28;20271;-44
2024/02/21 11:58:00;;;;;;;247.43;84.50;;;;;;;;;;5021701;28;20226;-44
2024/02/21 12:00:26;;;;;;;238.60;74.23;;;;;;;;;;5030137;28;20213;-44
2024/02/21 12:02:52;;;;;;;242.88;78.25;;;;;;;;;;5019813;28;20473;-44
2024/02/21 12:05:21;;;;;;;243.60;81.15;;;;;;;;;;5025074;28;20189;-44
2024/02/21 12:07:47;;;;;;;241.48;78.75;;;;;;;;;;5023890;28;20206;-44
2024/02/21 12:10:13;;;;;;;240.37;76.37;;;;;;;;;;5031115;28;20189;-44
2024/02/21 12:12:40;;;;;;;241.07;76.53;;;;;;;;;;5027609;28;20430;-44
2024/02/21 12:15:06;;;;;;;240.93;76.80;;;;;;;;;;5020778;28;20177;-44
2024/02/21 12:17:39;;;;;;;242.20;79.30;;;;;;;;;;5026425;28;20210;-44
2024/02/21 12:20:08;;;;;;;242.40;80.00;;;;;;;;;;5028669;28;20176;-44
2024/02/21 12:22:35;;;;;;;243.57;78.82;;;;;;;;;;5029957;28;20165;-44
2024/02/21 12:25:07;;;;;;;241.10;77.97;;;;;;;;;;5024162;28;20666;-44
2024/02/21 12:27:33;;;;;;;241.05;77.60;;;;;;;;;;5030573;28;20169;-45
2024/02/21 12:29:59;;;;;;;239.17;73.90;;;;;;;;;;5023362;28;20697;-44
2024/02/21 12:32:25;;;;;;;241.17;77.87;;;;;;;;;;5028077;28;20775;-44
2024/02/21 12:34:51;;;;;;;243.83;81.37;;;;;;;;;;5023174;28;20479;-44
2024/02/21 12:37:17;;;;;;;239.10;74.93;;;;;;;;;;5025071;28;20415;-43
2024/02/21 12:39:44;;;;;;;241.37;76.83;;;;;;;;;;5030601;28;20513;-44
2024/02/21 12:42:11;;;;;;;240.65;77.15;;;;;;;;;;5019607;28;20936;-44
2024/02/21 12:44:37;;;;;;;241.88;78.25;;;;;;;;;;5030414;28;20180;-44
2024/02/21 12:47:03;;;;;;;240.93;78.37;;;;;;;;;;5023821;28;20236;-44
2024/02/21 12:49:29;;;;;;;237.55;74.53;;;;;;;;;;5027897;28;20438;-44
2024/02/21 12:51:55;;;;;;;238.93;76.40;;;;;;;;;;5027622;28;20719;-44
2024/02/21 12:54:22;;;;;;;242.15;77.38;;;;;;;;;;5027318;28;20862;-44
2024/02/21 12:56:48;;;;;;;243.95;80.30;;;;;;;;;;5018121;28;20826;-44
2024/02/21 12:59:14;;;;;;;243.27;78.40;;;;;;;;;;5029271;28;20287;-44
2024/02/21 13:01:40;;;;;;;244.77;79.90;;;;;;;;;;5023439;28;20403;-44
2024/02/21 13:04:06;;;;;;;243.50;79.03;;;;;;;;;;5022837;28;20187;-44
2024/02/21 13:06:32;;;;;;;247.13;80.30;;;;;;;;;;5028356;28;20406;-44
2024/02/21 13:08:59;;;;;;;245.07;79.80;;;;;;;;;;5024808;28;20211;-44
2024/02/21 13:11:26;;;;;;;245.95;81.63;;;;;;;;;;5018940;28;20414;-44
2024/02/21 13:13:53;;;;;;;244.77;79.03;;;;;;;;;;5027728;28;20302;-44
2024/02/21 13:16:19;;;;;;;246.20;81.70;;;;;;;;;;5026071;28;20659;-44
2024/02/21 13:18:47;;;;;;;247.02;83.00;;;;;;;;;;5030142;28;20637;-44
2024/02/21 13:21:13;;;;;;;246.35;82.68;;;;;;;;;;5025371;28;20163;-44
2024/02/21 13:23:39;;;;;;;246.30;82.57;;;;;;;;;;5027037;28;20183;-44
2024/02/21 13:26:05;;;;;;;246.40;81.53;;;;;;;;;;5026617;28;20421;-44
2024/02/21 13:28:31;;;;;;;246.20;81.82;;;;;;;;;;5028414;28;20585;-44
2024/02/21 13:30:57;;;;;;;246.77;83.57;;;;;;;;;;5028802;28;20185;-44
2024/02/21 13:33:23;;;;;;;245.13;82.00;;;;;;;;;;5029799;28;20453;-44
2024/02/21 13:35:49;;;;;;;244.13;79.88;;;;;;;;;;5025733;28;20181;-45
2024/02/21 13:38:15;;;;;;;244.57;80.30;;;;;;;;;;5020904;28;20585;-44
2024/02/21 13:40:42;;;;;;;245.57;82.07;;;;;;;;;;5027863;28;20794;-44
2024/02/21 13:43:08;;;;;;;246.02;82.82;;;;;;;;;;5025785;28;20417;-44
2024/02/21 13:45:34;;;;;;;260.87;92.23;;;;;;;;;;5025079;28;20190;-45
2024/02/21 13:48:00;;;;;;;244.90;80.90;;;;;;;;;;5025658;28;20953;-44
2024/02/21 13:50:30;;;;;;;241.98;79.15;;;;;;;;;;5029985;28;20414;-44
2024/02/21 13:52:56;;;;;;;247.43;83.47;;;;;;;;;;5024129;28;20236;-44
2024/02/21 13:55:25;;;;;;;245.23;83.40;;;;;;;;;;5021457;28;20677;-45
2024/02/21 13:57:51;;;;;;;243.73;78.85;;;;;;;;;;5020117;28;20285;-45
2024/02/21 14:00:18;;;;;;;244.40;81.30;;;;;;;;;;5027594;28;20254;-44